sensor_id;sensor_type;location;lat;lon;timestamp;pressure;altitude;pressure_sealevel;temperature;humidity
45523;BME280;31254;51.680;5.394;2022-12-18T00:01:19;102916.38;;;-3.64;86.88
45523;BME280;31254;51.680;5.394;2022-12-18T00:03:47;102908.44;;;-3.69;86.94
45523;BME280;31254;51.680;5.394;2022-12-18T00:06:15;102895.97;;;-3.69;86.68
45523;BME280;31254;51.680;5.394;2022-12-18T00:08:42;102898.66;;;-3.73;87.22
45523;BME280;31254;51.680;5.394;2022-12-18T00:11:15;102901.28;;;-3.67;86.67
45523;BME280;31254;51.680;5.394;2022-12-18T00:13:44;102901.28;;;-3.64;87.50
45523;BME280;31254;51.680;5.394;2022-12-18T00:16:14;102888.81;;;-3.62;87.17
45523;BME280;31254;51.680;5.394;2022-12-18T00:18:42;102874.59;;;-3.61;86.83
45523;BME280;31254;51.680;5.394;2022-12-18T00:21:11;102884.34;;;-3.61;86.71
45523;BME280;31254;51.680;5.394;2022-12-18T00:23:39;102881.69;;;-3.61;86.84
45523;BME280;31254;51.680;5.394;2022-12-18T00:26:13;102878.16;;;-3.65;87.33
45523;BME280;31254;51.680;5.394;2022-12-18T00:28:42;102887.03;;;-3.61;86.97
45523;BME280;31254;51.680;5.394;2022-12-18T00:31:11;102883.47;;;-3.62;86.98
45523;BME280;31254;51.680;5.394;2022-12-18T00:33:38;102877.25;;;-3.62;87.00
45523;BME280;31254;51.680;5.394;2022-12-18T00:36:13;102864.81;;;-3.65;86.58
45523;BME280;31254;51.680;5.394;2022-12-18T00:38:41;102884.41;;;-3.66;86.80
45523;BME280;31254;51.680;5.394;2022-12-18T00:41:10;102884.44;;;-3.74;87.46
45523;BME280;31254;51.680;5.394;2022-12-18T00:43:38;102886.25;;;-3.79;87.20
45523;BME280;31254;51.680;5.394;2022-12-18T00:46:06;102867.63;;;-3.93;87.16
45523;BME280;31254;51.680;5.394;2022-12-18T00:48:33;102866.75;;;-3.92;87.27
45523;BME280;31254;51.680;5.394;2022-12-18T00:51:02;102865.84;;;-3.97;87.22
45523;BME280;31254;51.680;5.394;2022-12-18T00:53:28;102870.31;;;-3.94;87.41
45523;BME280;31254;51.680;5.394;2022-12-18T00:55:55;102852.59;;;-4.09;87.15
45523;BME280;31254;51.680;5.394;2022-12-18T00:58:21;102858.84;;;-4.13;87.54
45523;BME280;31254;51.680;5.394;2022-12-18T01:00:48;102863.31;;;-4.25;87.46
45523;BME280;31254;51.680;5.394;2022-12-18T01:03:14;102865.13;;;-4.34;87.24
45523;BME280;31254;51.680;5.394;2022-12-18T01:05:42;102872.25;;;-4.35;87.37
45523;BME280;31254;51.680;5.394;2022-12-18T01:08:09;102868.72;;;-4.42;86.96
45523;BME280;31254;51.680;5.394;2022-12-18T01:10:35;102886.44;;;-4.31;87.08
45523;BME280;31254;51.680;5.394;2022-12-18T01:13:02;102899.75;;;-4.27;87.13
45523;BME280;31254;51.680;5.394;2022-12-18T01:15:29;102891.75;;;-4.25;87.08
45523;BME280;31254;51.680;5.394;2022-12-18T01:17:55;102896.19;;;-4.19;87.09
45523;BME280;31254;51.680;5.394;2022-12-18T01:20:22;102894.41;;;-4.19;86.77
45523;BME280;31254;51.680;5.394;2022-12-18T01:22:48;102894.41;;;-4.16;86.99
45523;BME280;31254;51.680;5.394;2022-12-18T01:25:15;102895.28;;;-4.15;86.79
45523;BME280;31254;51.680;5.394;2022-12-18T01:27:42;102883.75;;;-4.19;87.23
45523;BME280;31254;51.680;5.394;2022-12-18T01:30:11;102891.72;;;-4.13;87.44
45523;BME280;31254;51.680;5.394;2022-12-18T01:32:37;102871.31;;;-4.26;86.63
45523;BME280;31254;51.680;5.394;2022-12-18T01:35:04;102885.47;;;-4.09;87.20
45523;BME280;31254;51.680;5.394;2022-12-18T01:37:31;102881.06;;;-4.10;86.66
45523;BME280;31254;51.680;5.394;2022-12-18T01:39:58;102870.41;;;-4.11;87.30
45523;BME280;31254;51.680;5.394;2022-12-18T01:42:24;102879.28;;;-4.11;87.32
45523;BME280;31254;51.680;5.394;2022-12-18T01:45:03;102878.41;;;-4.13;86.80
45523;BME280;31254;51.680;5.394;2022-12-18T01:50:39;102879.31;;;-4.29;87.40
45523;BME280;31254;51.680;5.394;2022-12-18T01:53:17;102871.38;;;-4.37;87.55
45523;BME280;31254;51.680;5.394;2022-12-18T01:55:57;102886.44;;;-4.31;87.26
45523;BME280;31254;51.680;5.394;2022-12-18T01:58:41;102885.56;;;-4.32;87.09
45523;BME280;31254;51.680;5.394;2022-12-18T02:01:09;102886.44;;;-4.34;86.97
45523;BME280;31254;51.680;5.394;2022-12-18T02:03:36;102882.03;;;-4.37;87.50
45523;BME280;31254;51.680;5.394;2022-12-18T02:09:04;102879.38;;;-4.42;87.30
45523;BME280;31254;51.680;5.394;2022-12-18T02:11:58;102878.50;;;-4.41;87.24
45523;BME280;31254;51.680;5.394;2022-12-18T02:14:39;102868.72;;;-4.42;86.78
45523;BME280;31254;51.680;5.394;2022-12-18T02:20:20;102876.72;;;-4.43;86.72
45523;BME280;31254;51.680;5.394;2022-12-18T02:28:09;102866.06;;;-4.48;86.76
45523;BME280;31254;51.680;5.394;2022-12-18T02:30:39;102866.97;;;-4.53;87.20
45523;BME280;31254;51.680;5.394;2022-12-18T02:33:08;102882.97;;;-4.60;87.20
45523;BME280;31254;51.680;5.394;2022-12-18T02:35:36;102868.78;;;-4.75;87.26
45523;BME280;31254;51.680;5.394;2022-12-18T02:38:04;102874.13;;;-4.83;86.80
45523;BME280;31254;51.680;5.394;2022-12-18T02:40:34;102858.13;;;-4.94;87.00
45523;BME280;31254;51.680;5.394;2022-12-18T02:43:07;102859.06;;;-4.97;86.99
45523;BME280;31254;51.680;5.394;2022-12-18T02:45:34;102862.59;;;-4.96;86.98
45523;BME280;31254;51.680;5.394;2022-12-18T02:48:01;102856.38;;;-4.95;86.90
45523;BME280;31254;51.680;5.394;2022-12-18T02:50:35;102854.59;;;-4.94;86.93
45523;BME280;31254;51.680;5.394;2022-12-18T02:53:17;102842.19;;;-5.06;86.98
45523;BME280;31254;51.680;5.394;2022-12-18T02:56:01;102851.06;;;-5.04;87.07
45523;BME280;31254;51.680;5.394;2022-12-18T03:01:29;102837.75;;;-5.09;86.77
45523;BME280;31254;51.680;5.394;2022-12-18T03:04:09;102852.84;;;-5.08;87.02
45523;BME280;31254;51.680;5.394;2022-12-18T03:06:45;102852.84;;;-5.12;86.89
45523;BME280;31254;51.680;5.394;2022-12-18T03:09:18;102845.72;;;-5.14;86.83
45523;BME280;31254;51.680;5.394;2022-12-18T03:11:50;102845.75;;;-5.17;86.98
45523;BME280;31254;51.680;5.394;2022-12-18T03:14:40;102849.31;;;-5.18;87.04
45523;BME280;31254;51.680;5.394;2022-12-18T03:17:10;102838.66;;;-5.27;86.94
45523;BME280;31254;51.680;5.394;2022-12-18T03:19:40;102835.97;;;-5.30;86.75
45523;BME280;31254;51.680;5.394;2022-12-18T03:22:09;102829.78;;;-5.30;86.66
45523;BME280;31254;51.680;5.394;2022-12-18T03:24:36;102835.09;;;-5.32;86.80
45523;BME280;31254;51.680;5.394;2022-12-18T03:27:13;102825.34;;;-5.39;86.69
45523;BME280;31254;51.680;5.394;2022-12-18T03:29:48;102818.25;;;-5.46;86.78
45523;BME280;31254;51.680;5.394;2022-12-18T03:32:24;102843.97;;;-5.44;86.84
45523;BME280;31254;51.680;5.394;2022-12-18T03:34:55;102831.53;;;-5.49;86.77
45523;BME280;31254;51.680;5.394;2022-12-18T03:37:24;102808.47;;;-5.67;87.16
45523;BME280;31254;51.680;5.394;2022-12-18T03:39:50;102820.00;;;-5.61;86.52
45523;BME280;31254;51.680;5.394;2022-12-18T03:42:25;102830.66;;;-5.56;86.90
45523;BME280;31254;51.680;5.394;2022-12-18T03:53:24;102804.94;;;-5.39;86.54
45523;BME280;31254;51.680;5.394;2022-12-18T03:55:52;102809.41;;;-5.38;86.45
45523;BME280;31254;51.680;5.394;2022-12-18T03:58:24;102796.09;;;-5.42;86.72
45523;BME280;31254;51.680;5.394;2022-12-18T04:00:54;102797.84;;;-5.38;86.72
45523;BME280;31254;51.680;5.394;2022-12-18T04:03:25;102809.38;;;-5.35;86.48
45523;BME280;31254;51.680;5.394;2022-12-18T04:05:54;102802.28;;;-5.33;86.45
45523;BME280;31254;51.680;5.394;2022-12-18T04:08:24;102796.06;;;-5.33;86.75
45523;BME280;31254;51.680;5.394;2022-12-18T04:10:52;102784.53;;;-5.32;86.55
45523;BME280;31254;51.680;5.394;2022-12-18T04:13:28;102775.69;;;-5.31;86.80
45523;BME280;31254;51.680;5.394;2022-12-18T04:15:58;102786.31;;;-5.33;86.58
45523;BME280;31254;51.680;5.394;2022-12-18T04:18:24;102788.09;;;-5.42;86.74
45523;BME280;31254;51.680;5.394;2022-12-18T04:20:51;102785.44;;;-5.55;86.85
45523;BME280;31254;51.680;5.394;2022-12-18T04:23:20;102783.66;;;-5.56;86.74
45523;BME280;31254;51.680;5.394;2022-12-18T04:25:47;102769.44;;;-5.67;86.73
45523;BME280;31254;51.680;5.394;2022-12-18T04:28:13;102783.66;;;-5.65;86.42
45523;BME280;31254;51.680;5.394;2022-12-18T04:30:45;102780.97;;;-5.76;86.47
45523;BME280;31254;51.680;5.394;2022-12-18T04:33:14;102785.41;;;-5.76;86.64
45523;BME280;31254;51.680;5.394;2022-12-18T04:35:42;102787.19;;;-5.69;86.15
45523;BME280;31254;51.680;5.394;2022-12-18T04:38:10;102794.31;;;-5.62;86.20
45523;BME280;31254;51.680;5.394;2022-12-18T04:40:38;102788.09;;;-5.59;86.02
45523;BME280;31254;51.680;5.394;2022-12-18T04:43:06;102800.50;;;-5.55;86.15
45523;BME280;31254;51.680;5.394;2022-12-18T04:45:35;102799.63;;;-5.59;86.23
45523;BME280;31254;51.680;5.394;2022-12-18T04:48:02;102793.41;;;-5.61;86.12
45523;BME280;31254;51.680;5.394;2022-12-18T04:50:32;102807.59;;;-5.51;86.39
45523;BME280;31254;51.680;5.394;2022-12-18T04:52:58;102813.81;;;-5.51;86.37
45523;BME280;31254;51.680;5.394;2022-12-18T04:55:25;102817.38;;;-5.48;86.26
45523;BME280;31254;51.680;5.394;2022-12-18T04:57:55;102825.34;;;-5.44;86.28
45523;BME280;31254;51.680;5.394;2022-12-18T05:00:21;102822.69;;;-5.45;86.42
45523;BME280;31254;51.680;5.394;2022-12-18T05:02:48;102828.03;;;-5.38;86.53
45523;BME280;31254;51.680;5.394;2022-12-18T05:05:15;102826.22;;;-5.40;86.54
45523;BME280;31254;51.680;5.394;2022-12-18T05:07:42;102820.91;;;-5.45;86.74
45523;BME280;31254;51.680;5.394;2022-12-18T05:10:11;102827.09;;;-5.46;86.68
45523;BME280;31254;51.680;5.394;2022-12-18T05:12:38;102831.53;;;-5.43;86.60
45523;BME280;31254;51.680;5.394;2022-12-18T05:15:30;102828.88;;;-5.51;86.61
45523;BME280;31254;51.680;5.394;2022-12-18T05:17:58;102837.75;;;-5.52;86.80
45523;BME280;31254;51.680;5.394;2022-12-18T05:20:26;102829.75;;;-5.60;86.58
45523;BME280;31254;51.680;5.394;2022-12-18T05:22:53;102834.19;;;-5.65;86.72
45523;BME280;31254;51.680;5.394;2022-12-18T05:25:21;102836.81;;;-5.74;86.65
45523;BME280;31254;51.680;5.394;2022-12-18T05:27:47;102825.28;;;-5.84;86.85
45523;BME280;31254;51.680;5.394;2022-12-18T05:30:15;102820.84;;;-5.93;86.95
45523;BME280;31254;51.680;5.394;2022-12-18T05:32:42;102819.06;;;-6.00;86.88
45523;BME280;31254;51.680;5.394;2022-12-18T05:35:10;102824.38;;;-6.00;86.87
45523;BME280;31254;51.680;5.394;2022-12-18T05:37:40;102813.75;;;-6.03;86.75
45523;BME280;31254;51.680;5.394;2022-12-18T05:40:09;102829.69;;;-6.01;86.81
45523;BME280;31254;51.680;5.394;2022-12-18T05:42:36;102819.03;;;-6.09;86.57
45523;BME280;31254;51.680;5.394;2022-12-18T05:45:04;102811.97;;;-6.12;86.32
45523;BME280;31254;51.680;5.394;2022-12-18T05:47:30;102808.41;;;-6.09;86.38
45523;BME280;31254;51.680;5.394;2022-12-18T05:49:57;102819.06;;;-6.01;86.42
45523;BME280;31254;51.680;5.394;2022-12-18T05:52:24;102805.75;;;-6.08;86.38
45523;BME280;31254;51.680;5.394;2022-12-18T05:54:50;102803.09;;;-6.09;86.58
45523;BME280;31254;51.680;5.394;2022-12-18T05:57:17;102794.25;;;-6.08;86.51
45523;BME280;31254;51.680;5.394;2022-12-18T05:59:44;102803.09;;;-6.04;86.36
45523;BME280;31254;51.680;5.394;2022-12-18T06:02:10;102786.25;;;-6.14;86.53
45523;BME280;31254;51.680;5.394;2022-12-18T06:04:39;102788.03;;;-6.12;86.50
45523;BME280;31254;51.680;5.394;2022-12-18T06:07:06;102806.66;;;-6.07;86.62
45523;BME280;31254;51.680;5.394;2022-12-18T06:09:33;102797.78;;;-6.06;86.32
45523;BME280;31254;51.680;5.394;2022-12-18T06:11:59;102793.38;;;-6.04;86.48
45523;BME280;31254;51.680;5.394;2022-12-18T06:14:26;102775.66;;;-6.07;86.61
45523;BME280;31254;51.680;5.394;2022-12-18T06:16:52;102780.97;;;-6.05;86.38
45523;BME280;31254;51.680;5.394;2022-12-18T06:19:19;102789.81;;;-6.06;86.20
45523;BME280;31254;51.680;5.394;2022-12-18T06:21:46;102792.47;;;-6.06;85.95
45523;BME280;31254;51.680;5.394;2022-12-18T06:24:13;102764.97;;;-6.28;86.25
45523;BME280;31254;51.680;5.394;2022-12-18T06:26:39;102800.44;;;-6.11;86.24
45523;BME280;31254;51.680;5.394;2022-12-18T06:29:06;102808.41;;;-6.09;86.49
45523;BME280;31254;51.680;5.394;2022-12-18T06:31:32;102795.09;;;-6.12;86.25
45523;BME280;31254;51.680;5.394;2022-12-18T06:34:02;102797.75;;;-6.11;86.36
45523;BME280;31254;51.680;5.394;2022-12-18T06:36:31;102791.63;;;-5.99;86.36
45523;BME280;31254;51.680;5.394;2022-12-18T06:39:00;102788.97;;;-5.99;86.60
45523;BME280;31254;51.680;5.394;2022-12-18T06:41:27;102796.91;;;-5.94;86.01
45523;BME280;31254;51.680;5.394;2022-12-18T06:43:53;102788.03;;;-5.93;86.48
45523;BME280;31254;51.680;5.394;2022-12-18T06:46:25;102772.09;;;-6.01;86.44
45523;BME280;31254;51.680;5.394;2022-12-18T06:48:52;102779.19;;;-5.95;86.66
45523;BME280;31254;51.680;5.394;2022-12-18T06:51:25;102764.13;;;-5.99;86.42
45523;BME280;31254;51.680;5.394;2022-12-18T06:53:52;102768.56;;;-6.01;86.66
45523;BME280;31254;51.680;5.394;2022-12-18T06:56:19;102760.56;;;-6.15;86.61
45523;BME280;31254;51.680;5.394;2022-12-18T06:58:45;102769.44;;;-6.12;86.43
45523;BME280;31254;51.680;5.394;2022-12-18T07:01:13;102770.34;;;-6.07;86.60
45523;BME280;31254;51.680;5.394;2022-12-18T07:03:41;102760.56;;;-6.06;86.19
45523;BME280;31254;51.680;5.394;2022-12-18T07:06:17;102768.56;;;-6.00;86.23
45523;BME280;31254;51.680;5.394;2022-12-18T07:08:47;102754.41;;;-6.00;86.32
45523;BME280;31254;51.680;5.394;2022-12-18T07:11:15;102738.44;;;-6.07;86.24
45523;BME280;31254;51.680;5.394;2022-12-18T07:13:42;102748.16;;;-5.93;86.28
45523;BME280;31254;51.680;5.394;2022-12-18T07:16:11;102735.78;;;-5.93;86.38
45523;BME280;31254;51.680;5.394;2022-12-18T07:18:48;102718.94;;;-6.01;86.18
45523;BME280;31254;51.680;5.394;2022-12-18T07:21:17;102736.66;;;-5.89;86.02
45523;BME280;31254;51.680;5.394;2022-12-18T07:23:44;102737.53;;;-5.85;86.08
45523;BME280;31254;51.680;5.394;2022-12-18T07:26:17;102735.75;;;-5.82;86.20
45523;BME280;31254;51.680;5.394;2022-12-18T07:28:44;102721.59;;;-5.85;86.33
45523;BME280;31254;51.680;5.394;2022-12-18T07:31:13;102710.06;;;-5.77;85.90
45523;BME280;31254;51.680;5.394;2022-12-18T07:33:41;102698.53;;;-5.82;85.50
45523;BME280;31254;51.680;5.394;2022-12-18T07:36:09;102710.06;;;-5.75;85.68
45523;BME280;31254;51.680;5.394;2022-12-18T07:38:39;102711.84;;;-5.74;85.32
45523;BME280;31254;51.680;5.394;2022-12-18T07:41:10;102705.66;;;-5.70;85.31
45523;BME280;31254;51.680;5.394;2022-12-18T07:43:38;102707.41;;;-5.64;85.46
45523;BME280;31254;51.680;5.394;2022-12-18T07:46:11;102691.47;;;-5.63;85.03
45523;BME280;31254;51.680;5.394;2022-12-18T07:48:41;102683.47;;;-5.63;85.09
45523;BME280;31254;51.680;5.394;2022-12-18T07:51:12;102685.22;;;-5.53;85.33
45523;BME280;31254;51.680;5.394;2022-12-18T07:53:39;102632.06;;;-5.73;84.83
45523;BME280;31254;51.680;5.394;2022-12-18T07:56:11;102672.78;;;-5.40;84.85
45523;BME280;31254;51.680;5.394;2022-12-18T07:58:57;102668.34;;;-5.36;84.70
45523;BME280;31254;51.680;5.394;2022-12-18T08:01:24;102671.00;;;-5.28;84.60
45523;BME280;31254;51.680;5.394;2022-12-18T08:03:51;102679.84;;;-5.25;84.33
45523;BME280;31254;51.680;5.394;2022-12-18T08:06:18;102677.19;;;-5.19;84.21
45523;BME280;31254;51.680;5.394;2022-12-18T08:08:53;102685.13;;;-5.09;84.38
45523;BME280;31254;51.680;5.394;2022-12-18T08:11:21;102642.59;;;-5.25;84.31
45523;BME280;31254;51.680;5.394;2022-12-18T08:13:50;102681.53;;;-4.96;83.85
45523;BME280;31254;51.680;5.394;2022-12-18T08:16:18;102685.06;;;-4.88;83.99
45523;BME280;31254;51.680;5.394;2022-12-18T08:18:46;102689.47;;;-4.81;83.71
45523;BME280;31254;51.680;5.394;2022-12-18T08:21:16;102695.66;;;-4.72;84.06
45523;BME280;31254;51.680;5.394;2022-12-18T08:23:43;102696.53;;;-4.70;83.43
45523;BME280;31254;51.680;5.394;2022-12-18T08:26:11;102695.59;;;-4.60;83.71
45523;BME280;31254;51.680;5.394;2022-12-18T08:28:39;102692.88;;;-4.52;83.07
45523;BME280;31254;51.680;5.394;2022-12-18T08:31:07;102698.19;;;-4.45;83.17
45523;BME280;31254;51.680;5.394;2022-12-18T08:33:37;102682.19;;;-4.45;83.02
45523;BME280;31254;51.680;5.394;2022-12-18T08:36:05;102691.91;;;-4.34;83.53
45523;BME280;31254;51.680;5.394;2022-12-18T08:38:32;102686.53;;;-4.30;83.36
45523;BME280;31254;51.680;5.394;2022-12-18T08:41:00;102665.19;;;-4.25;82.99
45523;BME280;31254;51.680;5.394;2022-12-18T08:43:27;102666.97;;;-4.24;83.14
45523;BME280;31254;51.680;5.394;2022-12-18T08:46:12;102651.84;;;-4.22;82.72
45523;BME280;31254;51.680;5.394;2022-12-18T08:48:41;102658.88;;;-4.12;82.38
45523;BME280;31254;51.680;5.394;2022-12-18T08:51:08;102664.16;;;-4.06;82.38
45523;BME280;31254;51.680;5.394;2022-12-18T08:53:36;102665.00;;;-3.99;82.67
45523;BME280;31254;51.680;5.394;2022-12-18T08:56:04;102669.41;;;-3.92;82.65
45523;BME280;31254;51.680;5.394;2022-12-18T08:58:31;102667.56;;;-3.87;82.48
45523;BME280;31254;51.680;5.394;2022-12-18T09:01:08;102672.88;;;-3.80;82.12
45523;BME280;31254;51.680;5.394;2022-12-18T09:03:36;102661.25;;;-3.76;82.07
45523;BME280;31254;51.680;5.394;2022-12-18T09:06:03;102669.16;;;-3.64;81.62
45523;BME280;31254;51.680;5.394;2022-12-18T09:08:32;102670.00;;;-3.60;81.72
45523;BME280;31254;51.680;5.394;2022-12-18T09:11:00;102663.75;;;-3.56;81.47
45523;BME280;31254;51.680;5.394;2022-12-18T09:13:26;102667.25;;;-3.50;81.48
45523;BME280;31254;51.680;5.394;2022-12-18T09:15:53;102667.19;;;-3.45;81.86
45523;BME280;31254;51.680;5.394;2022-12-18T09:18:22;102679.59;;;-3.41;81.42
45523;BME280;31254;51.680;5.394;2022-12-18T09:20:49;102686.59;;;-3.29;81.67
45523;BME280;31254;51.680;5.394;2022-12-18T09:23:18;102688.34;;;-3.26;80.89
45523;BME280;31254;51.680;5.394;2022-12-18T09:25:45;102694.47;;;-3.17;81.08
45523;BME280;31254;51.680;5.394;2022-12-18T09:28:17;102697.06;;;-3.09;80.78
45523;BME280;31254;51.680;5.394;2022-12-18T09:30:46;102690.75;;;-3.02;81.19
45523;BME280;31254;51.680;5.394;2022-12-18T09:33:13;102653.44;;;-3.09;81.31
45523;BME280;31254;51.680;5.394;2022-12-18T09:35:41;102674.56;;;-2.86;81.16
45523;BME280;31254;51.680;5.394;2022-12-18T09:38:11;102662.97;;;-2.87;81.22
45523;BME280;31254;51.680;5.394;2022-12-18T09:41:05;102651.28;;;-2.77;80.77
45523;BME280;31254;51.680;5.394;2022-12-18T09:43:50;102635.28;;;-2.81;80.56
45523;BME280;31254;51.680;5.394;2022-12-18T09:46:24;102640.59;;;-2.78;80.26
45523;BME280;31254;51.680;5.394;2022-12-18T09:48:55;102650.28;;;-2.69;80.37
45523;BME280;31254;51.680;5.394;2022-12-18T09:51:45;102635.19;;;-2.72;80.46
45523;BME280;31254;51.680;5.394;2022-12-18T09:54:20;102634.06;;;-2.55;79.89
45523;BME280;31254;51.680;5.394;2022-12-18T09:56:48;102617.88;;;-2.46;80.54
45523;BME280;31254;51.680;5.394;2022-12-18T09:59:25;102617.78;;;-2.40;80.06
45523;BME280;31254;51.680;5.394;2022-12-18T10:01:53;102624.81;;;-2.33;80.13
45523;BME280;31254;51.680;5.394;2022-12-18T10:04:20;102630.91;;;-2.25;79.31
45523;BME280;31254;51.680;5.394;2022-12-18T10:06:56;102637.06;;;-2.19;79.09
45523;BME280;31254;51.680;5.394;2022-12-18T10:12:21;102635.97;;;-2.06;78.92
45523;BME280;31254;51.680;5.394;2022-12-18T10:20:16;102615.13;;;-1.86;79.08
45523;BME280;31254;51.680;5.394;2022-12-18T10:23:03;102626.63;;;-1.80;79.27
45523;BME280;31254;51.680;5.394;2022-12-18T10:28:39;102619.44;;;-1.78;78.79
45523;BME280;31254;51.680;5.394;2022-12-18T10:31:14;102621.13;;;-1.71;79.01
45523;BME280;31254;51.680;5.394;2022-12-18T10:33:43;102612.13;;;-1.69;78.79
45523;BME280;31254;51.680;5.394;2022-12-18T10:36:10;102593.41;;;-1.70;79.36
45523;BME280;31254;51.680;5.394;2022-12-18T10:38:39;102604.91;;;-1.62;78.77
45523;BME280;31254;51.680;5.394;2022-12-18T10:41:25;102594.97;;;-1.57;79.26
45523;BME280;31254;51.680;5.394;2022-12-18T10:46:46;102570.63;;;-1.44;78.81
45523;BME280;31254;51.680;5.394;2022-12-18T10:49:23;102561.59;;;-1.39;79.04
45523;BME280;31254;51.680;5.394;2022-12-18T10:52:21;102574.00;;;-1.35;78.92
45523;BME280;31254;51.680;5.394;2022-12-18T10:54:52;102564.25;;;-1.37;78.87
45523;BME280;31254;51.680;5.394;2022-12-18T10:59:54;102557.16;;;-1.40;78.60
45523;BME280;31254;51.680;5.394;2022-12-18T11:02:35;102544.69;;;-1.41;78.63
45523;BME280;31254;51.680;5.394;2022-12-18T11:05:22;102549.97;;;-1.38;79.14
45523;BME280;31254;51.680;5.394;2022-12-18T11:07:50;102558.56;;;-1.22;78.33
45523;BME280;31254;51.680;5.394;2022-12-18T11:10:18;102547.84;;;-1.22;78.73
45523;BME280;31254;51.680;5.394;2022-12-18T11:12:46;102560.28;;;-1.18;78.69
45523;BME280;31254;51.680;5.394;2022-12-18T11:15:21;102561.97;;;-1.14;78.84
45523;BME280;31254;51.680;5.394;2022-12-18T11:17:50;102554.78;;;-1.12;78.47
45523;BME280;31254;51.680;5.394;2022-12-18T11:20:35;102551.13;;;-1.07;78.40
45523;BME280;31254;51.680;5.394;2022-12-18T11:23:12;102552.81;;;-1.03;78.46
45523;BME280;31254;51.680;5.394;2022-12-18T11:25:39;102550.84;;;-0.95;78.15
45523;BME280;31254;51.680;5.394;2022-12-18T11:31:22;102533.84;;;-0.94;78.48
45523;BME280;31254;51.680;5.394;2022-12-18T11:33:56;102532.84;;;-0.88;78.53
45523;BME280;31254;51.680;5.394;2022-12-18T11:36:46;102532.03;;;-0.92;78.73
45523;BME280;31254;51.680;5.394;2022-12-18T11:42:19;102531.84;;;-0.84;78.63
45523;BME280;31254;51.680;5.394;2022-12-18T11:45:17;102518.47;;;-0.86;78.71
45523;BME280;31254;51.680;5.394;2022-12-18T11:53:18;102522.59;;;-0.69;78.10
45523;BME280;31254;51.680;5.394;2022-12-18T12:09:29;102490.16;;;-0.60;78.41
45523;BME280;31254;51.680;5.394;2022-12-18T12:15:26;102470.38;;;-0.54;77.94
45523;BME280;31254;51.680;5.394;2022-12-18T12:18:08;102475.75;;;-0.54;78.02
45523;BME280;31254;51.680;5.394;2022-12-18T12:23:40;102465.06;;;-0.56;78.03
45523;BME280;31254;51.680;5.394;2022-12-18T12:26:33;102459.63;;;-0.53;78.50
45523;BME280;31254;51.680;5.394;2022-12-18T12:29:19;102442.84;;;-0.61;78.17
45523;BME280;31254;51.680;5.394;2022-12-18T12:34:54;102451.50;;;-0.50;78.37
45523;BME280;31254;51.680;5.394;2022-12-18T12:37:54;102439.03;;;-0.52;78.40
45523;BME280;31254;51.680;5.394;2022-12-18T12:40:28;102433.63;;;-0.51;78.31
45523;BME280;31254;51.680;5.394;2022-12-18T12:46:12;102420.16;;;-0.48;78.33
45523;BME280;31254;51.680;5.394;2022-12-18T12:51:27;102417.56;;;-0.51;78.66
45523;BME280;31254;51.680;5.394;2022-12-18T12:53:57;102410.25;;;-0.46;78.36
45523;BME280;31254;51.680;5.394;2022-12-18T12:56:50;102412.03;;;-0.45;78.54
45523;BME280;31254;51.680;5.394;2022-12-18T13:05:24;102389.78;;;-0.48;78.37
45523;BME280;31254;51.680;5.394;2022-12-18T13:07:58;102390.69;;;-0.49;78.75
45523;BME280;31254;51.680;5.394;2022-12-18T13:10:31;102402.09;;;-0.41;78.38
45523;BME280;31254;51.680;5.394;2022-12-18T13:13:13;102394.22;;;-0.47;78.22
45523;BME280;31254;51.680;5.394;2022-12-18T13:15:50;102395.88;;;-0.42;78.79
45523;BME280;31254;51.680;5.394;2022-12-18T13:18:31;102395.06;;;-0.45;78.17
45523;BME280;31254;51.680;5.394;2022-12-18T13:26:00;102393.97;;;-0.38;78.86
45523;BME280;31254;51.680;5.394;2022-12-18T13:28:57;102385.00;;;-0.37;78.48
45523;BME280;31254;51.680;5.394;2022-12-18T13:34:27;102382.47;;;-0.42;78.69
45523;BME280;31254;51.680;5.394;2022-12-18T13:39:58;102380.56;;;-0.38;78.76
45523;BME280;31254;51.680;5.394;2022-12-18T13:42:40;102381.44;;;-0.38;78.51
45523;BME280;31254;51.680;5.394;2022-12-18T13:45:41;102372.53;;;-0.38;79.05
45523;BME280;31254;51.680;5.394;2022-12-18T13:48:16;102370.75;;;-0.39;78.54
45523;BME280;31254;51.680;5.394;2022-12-18T13:50:48;102358.31;;;-0.42;78.79
45523;BME280;31254;51.680;5.394;2022-12-18T13:53:21;102359.97;;;-0.38;78.85
45523;BME280;31254;51.680;5.394;2022-12-18T13:55:49;102337.03;;;-0.48;78.79
45523;BME280;31254;51.680;5.394;2022-12-18T13:58:16;102347.56;;;-0.40;78.75
45523;BME280;31254;51.680;5.394;2022-12-18T14:00:43;102350.16;;;-0.37;78.84
45523;BME280;31254;51.680;5.394;2022-12-18T14:03:23;102351.06;;;-0.38;78.83
45523;BME280;31254;51.680;5.394;2022-12-18T14:06:04;102351.06;;;-0.38;78.93
45523;BME280;31254;51.680;5.394;2022-12-18T14:08:35;102349.28;;;-0.39;78.72
45523;BME280;31254;51.680;5.394;2022-12-18T14:11:05;102355.59;;;-0.40;78.89
45523;BME280;31254;51.680;5.394;2022-12-18T14:13:41;102354.69;;;-0.41;78.87
45523;BME280;31254;51.680;5.394;2022-12-18T14:16:13;102354.56;;;-0.36;78.79
45523;BME280;31254;51.680;5.394;2022-12-18T14:18:54;102356.31;;;-0.33;78.79
45523;BME280;31254;51.680;5.394;2022-12-18T14:21:45;102339.50;;;-0.40;78.64
45523;BME280;31254;51.680;5.394;2022-12-18T14:24:20;102357.22;;;-0.34;78.87
45523;BME280;31254;51.680;5.394;2022-12-18T14:26:52;102352.78;;;-0.35;78.56
45523;BME280;31254;51.680;5.394;2022-12-18T14:29:29;102348.38;;;-0.38;78.58
45523;BME280;31254;51.680;5.394;2022-12-18T14:32:18;102350.97;;;-0.35;79.14
45523;BME280;31254;51.680;5.394;2022-12-18T14:34:52;102329.56;;;-0.37;78.85
45523;BME280;31254;51.680;5.394;2022-12-18T14:37:24;102324.28;;;-0.40;79.15
45523;BME280;31254;51.680;5.394;2022-12-18T14:39:58;102332.47;;;-0.44;78.89
45523;BME280;31254;51.680;5.394;2022-12-18T14:42:32;102332.50;;;-0.46;79.01
45523;BME280;31254;51.680;5.394;2022-12-18T14:45:42;102338.47;;;-0.36;78.98
45523;BME280;31254;51.680;5.394;2022-12-18T14:48:38;102336.69;;;-0.35;79.20
45523;BME280;31254;51.680;5.394;2022-12-18T14:51:21;102335.81;;;-0.36;79.10
45523;BME280;31254;51.680;5.394;2022-12-18T14:53:59;102320.69;;;-0.39;78.89